Time;durP1;ratioP1;P1;durP2;ratioP2;P2;SDS_P1;SDS_P2;PMS_P1;PMS_P2;Temp;Humidity;BMP_temperature;BMP_pressure;BME280_temperature;BME280_humidity;BME280_pressure;Samples;Min_cycle;Max_cycle;Signal;HPM_P1;HPM_P2
2022/04/29 00:05:31;;;;;;;1999.90;999.90;;;;;;;8.80;66.31;102437.06;15747509;28;20128;-63
2022/04/29 00:13:07;;;;;;;1999.90;999.90;;;;;;;9.08;66.30;102438.44;15747333;28;20068;-60
2022/04/29 00:20:39;;;;;;;1999.90;999.90;;;;;;;9.09;66.77;102442.88;15732576;28;20044;-63
2022/04/29 00:28:13;;;;;;;1999.90;999.90;;;;;;;9.24;65.38;102434.47;15742576;28;20048;-61
2022/04/29 00:35:46;;;;;;;1999.90;999.90;;;;;;;9.10;66.18;102425.88;15813395;28;20132;-60
2022/04/29 00:43:19;;;;;;;1999.90;999.90;;;;;;;9.01;66.67;102424.78;15809984;28;20134;-61
2022/04/29 00:50:51;;;;;;;1999.90;999.90;;;;;;;8.80;67.00;102423.97;15809255;28;20101;-61
2022/04/29 00:58:38;;;;;;;1999.90;999.90;;;;;;;8.78;66.60;102422.59;15808005;28;20105;-62
2022/04/29 01:06:10;;;;;;;1999.90;999.90;;;;;;;8.62;66.32;102424.53;15807971;28;20044;-63
2022/04/29 01:13:44;;;;;;;1999.90;999.90;;;;;;;8.36;68.28;102421.75;15789637;28;20044;-60
2022/04/29 01:21:17;;;;;;;1999.90;999.90;;;;;;;8.47;68.49;102424.56;15771715;22;20059;-61
2022/04/29 01:28:52;;;;;;;1999.90;999.90;;;;;;;8.41;68.68;102415.34;15753196;28;20097;-61
2022/04/29 01:36:25;;;;;;;1999.90;999.90;;;;;;;8.32;68.85;102412.25;15861522;28;20063;-61
2022/04/29 01:43:59;;;;;;;1999.90;999.90;;;;;;;8.27;68.32;102417.00;15843866;28;20085;-60
2022/04/29 01:51:31;;;;;;;1999.90;999.90;;;;;;;8.14;68.42;102412.81;15860024;28;20074;-59
2022/04/29 01:59:05;;;;;;;1999.90;999.90;;;;;;;8.08;68.75;102406.38;15842544;28;20063;-60
2022/04/29 02:06:42;;;;;;;1999.90;999.90;;;;;;;7.95;69.45;102394.97;15814173;28;20032;-61
2022/04/29 02:14:17;;;;;;;1999.90;999.90;;;;;;;8.04;68.28;102396.09;15776389;28;20510;-60
2022/04/29 02:22:01;;;;;;;1999.90;999.90;;;;;;;7.79;68.92;102397.69;15804689;28;20116;-60
2022/04/29 02:29:35;;;;;;;1999.90;999.90;;;;;;;7.80;68.88;102398.53;15822310;28;20119;-60
2022/04/29 02:37:16;;;;;;;1999.90;999.90;;;;;;;7.55;69.21;102390.97;15848611;28;20051;-56
2022/04/29 02:44:53;;;;;;;1999.90;999.90;;;;;;;7.46;69.73;102387.03;15870865;28;20054;-59
2022/04/29 02:52:27;;;;;;;1999.90;999.90;;;;;;;7.31;68.79;102411.97;15844378;28;20043;-57
2022/04/29 03:00:01;;;;;;;1999.90;999.90;;;;;;;7.33;70.77;102398.66;15790032;28;20048;-57
2022/04/29 03:07:34;;;;;;;1999.90;999.90;;;;;;;7.41;69.86;102392.56;15807277;28;20493;-54
2022/04/29 03:15:18;;;;;;;1999.90;999.90;;;;;;;7.39;70.61;102392.00;15788933;28;20040;-55
2022/04/29 03:22:54;;;;;;;1999.90;999.90;;;;;;;7.32;69.83;102395.03;15804506;28;20082;-60
2022/04/29 03:30:28;;;;;;;1999.90;999.90;;;;;;;7.31;70.30;102387.81;15863085;28;20118;-59
2022/04/29 03:38:02;;;;;;;1999.90;999.90;;;;;;;7.20;70.36;102383.31;15867462;28;20044;-59
2022/04/29 03:45:35;;;;;;;1999.90;999.90;;;;;;;7.15;70.38;102377.72;15866931;28;20050;-57
2022/04/29 03:53:10;;;;;;;1999.90;999.90;;;;;;;7.26;69.56;102384.16;15831313;28;20040;-56
2022/04/29 04:00:46;;;;;;;1999.90;999.90;;;;;;;7.08;68.83;102377.94;15816879;28;20152;-54
2022/04/29 04:08:21;;;;;;;1999.90;999.90;;;;;;;7.19;69.63;102370.50;15830236;28;20032;-56
2022/04/29 04:15:55;;;;;;;1999.90;999.90;;;;;;;7.53;69.78;102374.56;15825320;28;20500;-54
2022/04/29 04:23:28;;;;;;;1999.90;999.90;;;;;;;7.75;70.49;102395.75;15844942;28;20488;-56
2022/04/29 04:31:02;;;;;;;1999.90;999.90;;;;;;;8.15;69.91;102397.78;15854128;28;20060;-57
2022/04/29 04:38:50;;;;;;;1999.90;999.90;;;;;;;8.52;69.63;102393.94;15799046;28;20053;-54
2022/04/29 04:46:25;;;;;;;1999.90;999.90;;;;;;;9.11;68.73;102396.91;15799080;28;20040;-55
2022/04/29 04:54:24;;;;;;;1999.90;999.90;;;;;;;9.29;68.64;102406.63;15768941;28;20044;-58
2022/04/29 05:01:58;;;;;;;1999.90;999.90;;;;;;;9.85;67.25;102411.94;15781603;28;20113;-59
2022/04/29 05:09:51;;;;;;;1999.90;999.90;;;;;;;10.14;66.94;102420.44;15851087;28;20036;-60
2022/04/29 05:17:25;;;;;;;1999.90;999.90;;;;;;;10.39;68.21;102417.47;15861737;28;20158;-60
2022/04/29 05:25:16;;;;;;;1999.90;999.90;;;;;;;10.89;66.26;102418.16;15861842;28;20395;-59
2022/04/29 05:33:09;;;;;;;1999.90;999.90;;;;;;;11.19;66.08;102421.78;15860989;28;20516;-55
2022/04/29 05:49:11;;;;;;;1999.90;999.90;;;;;;;12.26;60.31;102418.44;15824939;28;20048;-57
2022/04/29 05:56:49;;;;;;;1999.90;999.90;;;;;;;12.77;57.10;102417.59;15797073;28;20028;-60
2022/04/29 06:04:23;;;;;;;1999.90;999.90;;;;;;;14.37;53.29;102424.13;15800113;28;20082;-59
2022/04/29 06:11:56;;;;;;;1999.90;999.90;;;;;;;15.23;54.20;102428.69;15822619;28;20069;-59
2022/04/29 06:19:35;;;;;;;1999.90;999.90;;;;;;;17.09;48.73;102435.56;15857598;28;20048;-59
2022/04/29 06:27:37;;;;;;;1999.90;999.90;;;;;;;16.56;48.66;102429.16;15760295;28;20113;-58
2022/04/29 06:35:13;;;;;;;1999.90;999.90;;;;;;;15.91;49.81;102441.38;15796935;28;20060;-55
2022/04/29 06:42:50;;;;;;;1999.90;999.90;;;;;;;16.71;45.66;102439.13;15832943;28;20518;-58
2022/04/29 06:50:42;;;;;;;1999.90;999.90;;;;;;;17.72;44.08;102446.00;15858680;28;20055;-58
2022/04/29 06:58:42;;;;;;;1999.90;999.90;;;;;;;18.39;42.43;102449.84;15841729;28;20048;-59
2022/04/29 07:06:19;;;;;;;1999.90;999.90;;;;;;;18.49;38.17;102452.28;15860573;28;20123;-61
2022/04/29 07:13:52;;;;;;;1999.90;999.90;;;;;;;19.23;37.19;102450.56;15836374;28;20036;-61
2022/04/29 07:21:27;;;;;;;1999.90;999.90;;;;;;;19.01;37.60;102454.63;15754436;22;20079;-73
2022/04/29 07:29:00;;;;;;;1999.90;999.90;;;;;;;20.17;34.95;102454.16;15726940;28;20106;-72
2022/04/29 07:44:31;;;;;;;1999.90;999.90;;;;;;;18.93;32.05;102439.41;15731849;28;20049;-73
2022/04/29 07:52:07;;;;;;;1999.90;999.90;;;;;;;18.84;32.31;102440.66;15731802;28;20039;-73
2022/04/29 07:59:41;;;;;;;1999.90;999.90;;;;;;;19.51;32.04;102434.56;15749539;28;20056;-72
2022/04/29 08:07:24;;;;;;;1999.90;999.90;;;;;;;19.83;32.56;102434.84;15758423;28;20045;-73
2022/04/29 08:14:58;;;;;;;1999.90;999.90;;;;;;;20.59;32.44;102438.81;15721726;28;20048;-73
2022/04/29 08:22:58;;;;;;;1999.90;999.90;;;;;;;21.32;31.57;102439.28;15721214;28;20056;-72
2022/04/29 08:30:33;;;;;;;1999.90;999.90;;;;;;;22.44;32.11;102441.59;15765405;28;20067;-73
2022/04/29 08:38:10;;;;;;;1999.90;999.90;;;;;;;22.39;28.94;102433.34;15783267;28;20040;-73
2022/04/29 08:45:56;;;;;;;1999.90;999.90;;;;;;;22.14;30.08;102441.34;15768750;28;20439;-73
2022/04/29 08:54:05;;;;;;;1999.90;999.90;;;;;;;23.67;27.51;102434.25;15807947;28;20447;-74
2022/04/29 09:01:38;;;;;;;1999.90;999.90;;;;;;;24.75;26.66;102427.66;15775704;28;20173;-73
2022/04/29 09:09:12;;;;;;;1999.90;999.90;;;;;;;25.25;25.57;102428.22;15755680;28;20063;-74
2022/04/29 09:16:45;;;;;;;1999.90;999.90;;;;;;;24.26;28.55;102424.94;15738552;28;20358;-75
2022/04/29 09:24:21;;;;;;;1999.90;999.90;;;;;;;24.56;28.44;102421.28;15738883;28;20070;-74
2022/04/29 09:32:19;;;;;;;1999.90;999.90;;;;;;;23.50;28.98;102422.13;15745336;28;20044;-75
2022/04/29 09:40:12;;;;;;;1999.90;999.90;;;;;;;23.47;28.13;102404.97;15755060;28;20377;-75
2022/04/29 09:47:45;;;;;;;1999.90;999.90;;;;;;;23.32;29.37;102407.56;15737517;28;20063;-72
2022/04/29 09:55:19;;;;;;;;;;;;;;;23.93;29.12;102402.06;15761106;28;20048;-72
2022/04/29 10:02:52;;;;;;;1999.90;999.90;;;;;;;25.39;27.88;102396.09;15802272;28;20015;-74
2022/04/29 10:10:30;;;;;;;1999.90;999.90;;;;;;;26.17;25.17;102404.44;15758051;28;20044;-74
2022/04/29 10:26:13;;;;;;;1999.90;999.90;;;;;;;26.61;25.97;102384.22;15718289;28;20131;-74
2022/04/29 10:33:46;;;;;;;1999.90;999.90;;;;;;;27.01;25.16;102374.50;15718804;28;20055;-74
2022/04/29 10:41:24;;;;;;;1999.90;999.90;;;;;;;27.16;25.12;102377.38;15737454;28;20048;-75
2022/04/29 10:49:20;;;;;;;1999.90;999.90;;;;;;;27.21;26.15;102372.09;15744606;28;20060;-74
2022/04/29 10:57:12;;;;;;;1999.90;999.90;;;;;;;27.38;25.63;102358.97;15746924;28;20055;-74
2022/04/29 11:04:46;;;;;;;1999.90;999.90;;;;;;;27.98;24.09;102363.00;15746107;28;20052;-74
2022/04/29 11:12:31;;;;;;;1999.90;999.90;;;;;;;29.13;22.75;102349.72;15747743;28;20047;-74
2022/04/29 11:20:25;;;;;;;1999.90;999.90;;;;;;;29.51;21.52;102334.22;15754420;28;20068;-75
2022/04/29 11:28:03;;;;;;;1999.90;999.90;;;;;;;28.13;24.51;102313.75;15758426;28;20045;-74
2022/04/29 11:36:01;;;;;;;1999.90;999.90;;;;;;;28.22;25.70;102307.56;15783884;28;20111;-74
2022/04/29 11:43:35;;;;;;;1999.90;999.90;;;;;;;28.90;24.55;102310.09;15815420;28;20079;-73
2022/04/29 11:51:07;;;;;;;1999.90;999.90;;;;;;;28.07;23.18;102298.22;15812985;28;20052;-74
2022/04/29 11:58:40;;;;;;;1999.90;999.90;;;;;;;28.99;24.61;102294.00;15811485;28;20051;-74
2022/04/29 12:06:13;;;;;;;1999.90;999.90;;;;;;;30.22;22.22;102288.59;15763063;28;20411;-74
2022/04/29 12:13:47;;;;;;;1999.90;999.90;;;;;;;28.25;23.06;102269.44;15727167;28;20499;-75
2022/04/29 12:21:24;;;;;;;1999.90;999.90;;;;;;;29.75;20.32;102268.22;15744184;28;20396;-74
2022/04/29 12:28:58;;;;;;;1999.90;999.90;;;;;;;29.16;21.36;102251.97;15740411;28;20057;-73
2022/04/29 12:36:45;;;;;;;1999.90;999.90;;;;;;;31.63;19.31;102241.38;15755107;28;20052;-74
2022/04/29 12:52:06;;;;;;;1999.90;999.90;;;;;;;34.25;19.12;102232.22;15784316;28;20465;-75
2022/04/29 12:59:40;;;;;;;1999.90;999.90;;;;;;;32.20;18.28;102216.25;15803747;28;20078;-73
2022/04/29 13:07:12;;;;;;;1999.90;999.90;;;;;;;32.14;18.41;102202.38;15808822;28;20040;-73
2022/04/29 13:14:47;;;;;;;1999.90;999.90;;;;;;;35.25;15.57;102199.88;15788948;28;20048;-74
2022/04/29 13:22:20;;;;;;;1999.90;999.90;;;;;;;33.47;17.18;102182.47;15806751;28;20135;-75
2022/04/29 13:30:04;;;;;;;1999.90;999.90;;;;;;;31.91;17.62;102176.50;15838191;28;20095;-75
2022/04/29 13:37:36;;;;;;;1999.90;999.90;;;;;;;26.96;23.10;102159.22;15792980;28;20032;-72
2022/04/29 13:45:11;;;;;;;1999.90;999.90;;;;;;;23.88;24.99;102158.88;15805041;28;20040;-73
2022/04/29 14:00:35;;;;;;;1999.90;999.90;;;;;;;24.05;26.19;102133.78;15741100;28;20036;-74
2022/04/29 14:08:08;;;;;;;1999.90;999.90;;;;;;;24.21;25.81;102125.81;15734251;28;20098;-73
2022/04/29 14:15:44;;;;;;;1999.90;999.90;;;;;;;24.05;26.24;102119.53;15708409;28;20040;-73
2022/04/29 14:23:17;;;;;;;1999.90;999.90;;;;;;;23.10;26.81;102109.44;15745430;28;20041;-73
2022/04/29 14:30:50;;;;;;;1999.90;999.90;;;;;;;23.47;25.35;102097.31;15737560;28;20165;-73
2022/04/29 14:38:22;;;;;;;1999.90;999.90;;;;;;;22.72;26.70;102087.72;15751570;28;20052;-73
2022/04/29 14:45:56;;;;;;;1999.90;999.90;;;;;;;23.36;26.79;102079.28;15746594;28;20047;-73
2022/04/29 14:53:31;;;;;;;1999.90;999.90;;;;;;;22.87;26.76;102071.72;15729174;28;20045;-73
2022/04/29 15:01:05;;;;;;;1999.90;999.90;;;;;;;22.42;26.69;102060.06;15744669;28;20041;-73
2022/04/29 15:08:37;;;;;;;1999.90;999.90;;;;;;;21.90;26.93;102057.91;15745432;28;20048;-73
2022/04/29 15:16:12;;;;;;;1999.90;999.90;;;;;;;21.87;26.80;102052.97;15763344;28;20099;-73
2022/04/29 15:23:44;;;;;;;1999.90;999.90;;;;;;;21.80;27.34;102032.97;15806699;28;20294;-73
2022/04/29 15:31:18;;;;;;;1999.90;999.90;;;;;;;22.00;26.96;102039.41;15730822;28;20102;-72
2022/04/29 15:38:51;;;;;;;1999.90;999.90;;;;;;;21.66;26.77;102027.84;15709477;28;20048;-73
2022/04/29 15:46:25;;;;;;;1999.90;999.90;;;;;;;22.60;26.11;102017.63;15782688;28;20048;-73
2022/04/29 15:53:57;;;;;;;1999.90;999.90;;;;;;;23.26;26.39;102018.94;15786174;28;20165;-73
2022/04/29 16:01:32;;;;;;;1999.90;999.90;;;;;;;22.36;27.14;102018.91;15804193;28;20036;-73
2022/04/29 16:09:04;;;;;;;1999.90;999.90;;;;;;;22.09;28.26;102008.72;15788907;28;20499;-73
2022/04/29 16:16:38;;;;;;;1999.90;999.90;;;;;;;21.99;27.02;101998.81;15798104;28;20101;-72
2022/04/29 16:32:01;;;;;;;1999.90;999.90;;;;;;;22.21;26.23;101993.50;15742216;28;20052;-72
2022/04/29 16:39:34;;;;;;;1999.90;999.90;;;;;;;21.69;27.00;101984.50;15740972;28;20048;-72
2022/04/29 16:47:09;;;;;;;1999.90;999.90;;;;;;;21.39;28.42;101975.00;15748675;28;20116;-73
2022/04/29 16:54:41;;;;;;;1999.90;999.90;;;;;;;21.37;29.28;101978.22;15739788;28;20040;-72
2022/04/29 17:02:15;;;;;;;1999.90;999.90;;;;;;;21.33;29.80;101978.13;15739739;28;20114;-73
2022/04/29 17:09:47;;;;;;;1999.90;999.90;;;;;;;20.94;29.35;101976.50;15738404;28;20075;-72
2022/04/29 17:17:22;;;;;;;1999.90;999.90;;;;;;;21.18;28.87;101964.03;15749812;28;20071;-73
2022/04/29 17:24:55;;;;;;;1999.90;999.90;;;;;;;21.17;28.55;101957.53;15800099;28;20051;-72
2022/04/29 17:32:29;;;;;;;1999.90;999.90;;;;;;;20.93;28.40;101960.69;15800296;28;20500;-71
2022/04/29 17:47:52;;;;;;;1999.90;999.90;;;;;;;20.09;34.21;101981.03;15799580;28;20074;-72
2022/04/29 17:55:29;;;;;;;1999.90;999.90;;;;;;;19.39;34.11;101981.66;15798166;28;20071;-73
2022/04/29 18:03:03;;;;;;;1999.90;999.90;;;;;;;19.39;35.86;101989.34;15779622;28;20476;-72
2022/04/29 18:10:36;;;;;;;1999.90;999.90;;;;;;;18.92;35.75;101990.84;15746573;28;20099;-71
2022/04/29 18:18:10;;;;;;;1999.90;999.90;;;;;;;18.90;35.96;101998.88;15735978;28;20037;-72
2022/04/29 18:25:44;;;;;;;1999.90;999.90;;;;;;;18.59;36.70;101988.22;15732109;28;20044;-72
2022/04/29 18:33:17;;;;;;;1999.90;999.90;;;;;;;18.74;36.82;101989.50;15762905;28;20056;-73
2022/04/29 18:40:51;;;;;;;1999.90;999.90;;;;;;;18.56;36.81;102003.06;15781157;28;20060;-72
2022/04/29 18:48:25;;;;;;;1999.90;999.90;;;;;;;18.27;38.34;101992.03;15736190;28;20045;-72
2022/04/29 18:55:57;;;;;;;1999.90;999.90;;;;;;;18.03;38.04;101996.53;15733840;28;20048;-72
2022/04/29 19:03:31;;;;;;;1999.90;999.90;;;;;;;18.07;38.40;101997.47;15796127;28;20049;-72
2022/04/29 19:11:03;;;;;;;1999.90;999.90;;;;;;;18.06;38.84;102004.28;15805307;28;20066;-72
2022/04/29 19:18:38;;;;;;;1999.90;999.90;;;;;;;17.95;38.82;102003.13;15789180;28;20357;-72
2022/04/29 19:26:13;;;;;;;1999.90;999.90;;;;;;;17.81;39.88;102011.09;15789225;28;20063;-72
2022/04/29 19:33:49;;;;;;;1999.90;999.90;;;;;;;17.66;41.32;102008.94;15761527;28;20049;-72
2022/04/29 19:41:21;;;;;;;1999.90;999.90;;;;;;;17.42;42.61;101995.59;15742941;28;20052;-71
2022/04/29 19:48:55;;;;;;;1999.90;999.90;;;;;;;17.25;43.23;101990.97;15742336;28;20215;-72
2022/04/29 19:56:27;;;;;;;1999.90;999.90;;;;;;;17.19;43.20;101989.53;15721890;28;20068;-71
2022/04/29 20:04:01;;;;;;;1999.90;999.90;;;;;;;17.11;42.62;101990.47;15738547;28;20146;-72
2022/04/29 20:11:33;;;;;;;1999.90;999.90;;;;;;;16.93;43.65;101990.59;15740433;28;20056;-72
2022/04/29 20:19:07;;;;;;;1999.90;999.90;;;;;;;16.91;44.39;101997.78;15737956;28;20076;-72
2022/04/29 20:26:40;;;;;;;1999.90;999.90;;;;;;;16.70;44.13;101997.78;15740044;28;20036;-72
2022/04/29 20:34:13;;;;;;;1999.90;999.90;;;;;;;16.52;42.80;101991.41;15755808;28;20040;-72
2022/04/29 20:49:37;;;;;;;1999.90;999.90;;;;;;;16.72;40.86;102013.16;15785852;28;20138;-73
2022/04/29 20:57:10;;;;;;;1999.90;999.90;;;;;;;16.60;42.11;102012.25;15799432;28;20115;-71
2022/04/29 21:04:44;;;;;;;1999.90;999.90;;;;;;;16.46;42.63;102004.03;15810083;28;20052;-72
2022/04/29 21:12:16;;;;;;;1999.90;999.90;;;;;;;16.28;43.25;101999.72;15823600;22;20052;-60
2022/04/29 21:19:50;;;;;;;1999.90;999.90;;;;;;;16.15;43.80;102007.22;15793459;28;20055;-60
2022/04/29 21:27:22;;;;;;;1999.90;999.90;;;;;;;15.99;44.44;101997.72;15799320;28;20113;-61
2022/04/29 21:34:56;;;;;;;1999.90;999.90;;;;;;;15.92;44.45;102011.47;15802608;28;20044;-61
2022/04/29 21:42:28;;;;;;;1999.90;999.90;;;;;;;15.76;46.07;101991.53;15807457;28;20489;-62
2022/04/29 21:50:03;;;;;;;1999.90;999.90;;;;;;;15.61;47.94;101994.88;15802456;28;20512;-60
2022/04/29 21:57:35;;;;;;;1999.90;999.90;;;;;;;15.36;47.70;101999.41;15804863;28;20044;-61
2022/04/29 22:05:10;;;;;;;1999.90;999.90;;;;;;;15.19;47.63;101995.47;15804889;28;20123;-61
2022/04/29 22:12:42;;;;;;;1999.90;999.90;;;;;;;15.06;48.14;101992.84;15805581;28;20147;-62
2022/04/29 22:20:16;;;;;;;1999.90;999.90;;;;;;;14.77;48.69;101987.91;15806813;28;20147;-62
2022/04/29 22:27:51;;;;;;;1999.90;999.90;;;;;;;14.54;49.32;101978.81;15804873;28;20036;-63
2022/04/29 22:35:24;;;;;;;1999.90;999.90;;;;;;;14.44;49.47;101963.06;15804118;28;20067;-62
2022/04/29 22:42:57;;;;;;;;;;;;;;;14.33;50.61;101971.00;15810447;28;20040;-63
2022/04/29 22:50:30;;;;;;;1999.90;999.90;;;;;;;14.17;50.90;101969.81;15815215;28;19920;-62
2022/04/29 22:58:03;;;;;;;1999.90;999.90;;;;;;;14.02;53.00;101967.47;15814433;28;20122;-63
2022/04/29 23:05:38;;;;;;;1999.90;999.90;;;;;;;13.84;52.16;101953.38;15815958;28;20102;-63
2022/04/29 23:13:10;;;;;;;1999.90;999.90;;;;;;;13.69;53.15;101955.81;15813516;28;20048;-62
2022/04/29 23:20:44;;;;;;;1999.90;999.90;;;;;;;13.66;52.70;101936.84;15813206;28;20545;-61
2022/04/29 23:28:18;;;;;;;1999.90;999.90;;;;;;;13.46;53.29;101927.03;15814051;28;20043;-62
2022/04/29 23:35:52;;;;;;;1999.90;999.90;;;;;;;13.48;53.44;101924.72;15813288;28;20101;-61
2022/04/29 23:43:24;;;;;;;1999.90;999.90;;;;;;;13.31;54.79;101925.44;15812701;28;20044;-63
2022/04/29 23:50:59;;;;;;;1999.90;999.90;;;;;;;13.12;56.12;101920.03;15812798;28;20067;-62
2022/04/29 23:58:31;;;;;;;1999.90;999.90;;;;;;;13.09;55.16;101912.28;15809882;28;20503;-61
